Pagina principale
METAR-TAF:

METAR-TAF

Aeroporti :

Capri, Italia

latitudine: 40-33N, longitudine: 014-12E, altezza: 160 m

Osservazione

Il bollettino è stato emesso 49 minuti fa, alle 10:55 UTC
Vento 9 kt da est
Temperature 7°C
Umidità 70%
Pressione 1026 hPa
Visibilità 10 km o più
Nuvoloso ad un'altezza di 2000 ft

METAR: LIQC 091055Z 08009KT 9999 BKN020 07/02 Q1026 RMK BKN QUK 3 QUL 1 NE VIS MAR 20 KM VIS MIN 9999

Ora: 12:44 (11:44 UTC)


TAF: mancante

Osservazioni e previsioni meteorologiche di più di 4000 aeroporti (messaggi METAR e TAF).

Le stazioni disponibili sono rappresentate dai dischi gialli e rossi sulla carta.

Puntare il mouse per vedere il nome della stazione.

Clicca sopra per visualizzare le osservazioni e previsioni meteorologiche.

Per cambiare la mappa : fare clic sui pulsanti verdi con una croce nera per ingrandire, il pulsante verde con un trattino per diminuire, o sulla freccia verde per le mappe adiacenti.


METAR-TAF: